Time;durP1;ratioP1;P1;durP2;ratioP2;P2;SDS_P1;SDS_P2;PMS_P1;PMS_P2;Temp;Humidity;BMP_temperature;BMP_pressure;BME280_temperature;BME280_humidity;BME280_pressure;Samples;Min_cycle;Max_cycle;Signal;HPM_P1;HPM_P2
2021/11/15 00:01:41;;;;;;;35.75;15.57;;;7.00;99.90;;;5.34;100.00;102308.31;4886431;28;20050;-78
2021/11/15 00:04:08;;;;;;;34.80;16.08;;;8.30;99.90;;;5.33;100.00;102300.47;4920722;28;20070;-77
2021/11/15 00:06:34;;;;;;;40.50;15.88;;;7.00;99.90;;;5.32;100.00;102301.34;4914159;28;20062;-78
2021/11/15 00:09:00;;;;;;;38.05;16.67;;;6.90;99.90;;;5.30;100.00;102306.56;4910177;28;20399;-78
2021/11/15 00:11:27;;;;;;;36.47;15.50;;;6.90;99.90;;;5.29;100.00;102298.72;4895303;28;20086;-78
2021/11/15 00:13:53;;;;;;;43.67;16.80;;;6.90;99.90;;;5.27;100.00;102303.97;4888391;28;20030;-77
2021/11/15 00:16:24;;;;;;;40.80;16.35;;;7.70;99.90;;;5.31;100.00;102300.47;4913979;28;20086;-77
2021/11/15 00:18:50;;;;;;;38.63;15.70;;;7.00;99.90;;;5.33;100.00;102297.84;4914468;28;20483;-78
2021/11/15 00:21:16;;;;;;;43.25;16.70;;;7.00;99.90;;;5.34;100.00;102289.16;4912261;28;20058;-78
2021/11/15 00:23:42;;;;;;;35.40;16.10;;;6.90;99.90;;;5.32;100.00;102286.53;4894363;28;20046;-78
2021/11/15 00:26:09;;;;;;;40.85;15.88;;;6.90;99.90;;;5.34;100.00;102290.03;4914495;28;20510;-78
2021/11/15 00:28:38;;;;;;;38.38;16.67;;;7.00;99.90;;;5.35;100.00;102290.88;4884464;28;20034;-78
2021/11/15 00:31:05;;;;;;;35.58;15.07;;;7.00;99.90;;;5.36;100.00;102290.03;4922473;28;20050;-78
2021/11/15 00:33:32;;;;;;;38.20;16.98;;;7.00;99.90;;;5.34;100.00;102283.94;4906974;28;20089;-78
2021/11/15 00:35:58;;;;;;;34.80;15.68;;;6.90;99.90;;;5.30;100.00;102282.19;4894145;28;20023;-78
2021/11/15 00:38:24;;;;;;;42.83;16.60;;;7.60;99.90;;;5.27;100.00;102288.28;4877345;28;20026;-77
2021/11/15 00:40:50;;;;;;;41.85;17.33;;;6.90;99.90;;;5.32;100.00;102286.53;4923340;28;20102;-78
2021/11/15 00:43:21;;;;;;;35.75;16.67;;;6.90;99.90;;;5.29;100.00;102278.72;4914567;28;20586;-78
2021/11/15 00:45:47;;;;;;;40.45;17.40;;;6.90;99.90;;;5.29;100.00;102291.78;4910243;28;20062;-78
2021/11/15 00:48:13;;;;;;;39.17;16.45;;;6.90;99.90;;;5.31;100.00;102291.75;4900777;28;20379;-78
2021/11/15 00:50:40;;;;;;;45.50;17.42;;;6.90;99.90;;;5.29;100.00;102283.03;4921685;28;20116;-77
2021/11/15 00:53:07;;;;;;;42.05;16.67;;;6.90;99.90;;;5.28;100.00;102291.75;4894177;28;20617;-78
2021/11/15 00:55:34;;;;;;;45.63;17.20;;;6.90;99.90;;;5.29;100.00;102289.16;4878116;28;20039;-78
2021/11/15 00:58:01;;;;;;;35.30;15.13;;;6.90;99.90;;;5.29;100.00;102290.88;4911851;28;20051;-78
2021/11/15 01:00:30;;;;;;;35.17;17.05;;;6.90;99.90;;;5.27;100.00;102290.91;4916323;28;20506;-78
2021/11/15 01:03:06;;;;;;;35.33;15.85;;;6.90;99.90;;;5.28;100.00;102294.38;4918123;28;20499;-78
2021/11/15 01:05:33;;;;;;;39.40;15.38;;;6.90;99.90;;;5.26;100.00;102293.50;4884685;28;20051;-78
2021/11/15 01:07:59;;;;;;;43.55;16.65;;;6.90;99.90;;;5.26;100.00;102293.50;4870151;28;20062;-77
2021/11/15 01:10:25;;;;;;;40.60;17.58;;;6.90;99.90;;;5.31;100.00;102294.38;4898625;28;20035;-78
2021/11/15 01:12:51;;;;;;;39.53;16.90;;;6.90;99.90;;;5.32;100.00;102289.16;4919682;28;20023;-77
2021/11/15 01:15:23;;;;;;;35.95;15.88;;;7.00;99.90;;;5.34;100.00;102294.38;4910408;28;20053;-78
2021/11/15 01:17:55;;;;;;;38.03;16.33;;;7.00;99.90;;;5.32;100.00;102290.91;4874418;28;21628;-78
2021/11/15 01:20:31;;;;;;;43.40;16.85;;;6.90;99.90;;;5.37;100.00;102299.59;4922144;28;20557;-78
2021/11/15 01:23:01;;;;;;;38.80;16.20;;;7.00;99.90;;;5.44;100.00;102303.97;4935874;28;20057;-77
2021/11/15 01:25:28;;;;;;;37.70;16.27;;;7.00;99.90;;;5.46;99.31;102309.16;4915192;28;20114;-78
2021/11/15 01:27:55;;;;;;;43.58;17.13;;;7.00;99.90;;;5.60;99.25;102322.25;4903373;28;20046;-78
2021/11/15 01:30:23;;;;;;;41.90;16.75;;;7.20;99.90;;;5.56;98.94;102308.31;4933058;28;20035;-78
2021/11/15 01:32:50;;;;;;;44.33;16.88;;;7.10;99.90;;;5.55;99.31;102312.66;4892752;28;20524;-78
2021/11/15 01:35:22;;;;;;;37.95;15.52;;;7.10;99.90;;;5.50;98.96;102300.47;4896133;28;20031;-78
2021/11/15 01:37:48;;;;;;;43.60;16.50;;;7.10;99.90;;;5.46;98.95;102310.03;4906882;28;20353;-77
2021/11/15 01:40:19;;;;;;;43.10;16.98;;;7.10;99.90;;;5.57;97.81;102309.16;4907886;28;20592;-78
2021/11/15 01:42:48;;;;;;;43.72;16.48;;;7.10;99.90;;;5.51;97.88;102305.69;4883511;28;20027;-77
2021/11/15 01:45:22;;;;;;;42.88;17.17;;;7.10;99.90;;;5.53;97.73;102300.47;4907636;28;20058;-77
2021/11/15 01:47:53;;;;;;;37.88;16.25;;;7.10;99.90;;;5.54;97.41;102302.22;4869728;28;20106;-78
2021/11/15 01:50:21;;;;;;;39.05;16.08;;;7.10;99.90;;;5.55;97.42;102306.56;4878958;28;20036;-77
2021/11/15 01:52:48;;;;;;;37.40;16.45;;;7.10;99.90;;;5.66;96.59;102312.66;4889398;28;20426;-77
2021/11/15 01:55:17;;;;;;;44.13;17.13;;;7.20;99.90;;;5.67;97.06;102317.00;4919117;28;20049;-77
2021/11/15 01:57:45;;;;;;;38.13;16.85;;;7.10;99.90;;;5.58;97.14;102303.09;4880451;28;20027;-78
2021/11/15 02:00:23;;;;;;;39.92;17.38;;;7.10;99.90;;;5.61;97.03;102298.72;4888148;28;20118;-78
2021/11/15 02:02:49;;;;;;;38.47;16.17;;;7.10;99.90;;;5.58;97.11;102287.41;4890804;28;20102;-78
2021/11/15 02:05:16;;;;;;;38.50;16.65;;;7.10;99.90;;;5.53;96.80;102280.44;4910161;28;20039;-77
2021/11/15 02:07:42;;;;;;;42.60;18.17;;;7.10;99.90;;;5.52;97.82;102290.88;4953752;28;20031;-78
2021/11/15 02:10:11;;;;;;;41.25;17.58;;;7.10;99.90;;;5.55;97.36;102291.75;4901759;28;20110;-77
2021/11/15 02:12:40;;;;;;;43.13;18.23;;;7.10;99.90;;;5.58;97.21;102300.47;4930828;28;20360;-78
2021/11/15 02:15:13;;;;;;;41.47;17.40;;;7.10;99.90;;;5.55;97.13;102293.50;4904667;28;20110;-77
2021/11/15 02:17:46;;;;;;;42.75;17.92;;;7.10;99.90;;;5.56;97.12;102284.78;4915571;28;20154;-78
2021/11/15 02:20:24;;;;;;;49.50;18.52;;;7.10;99.90;;;5.58;96.89;102293.50;4921745;28;20044;-77
2021/11/15 02:22:52;;;;;;;43.75;17.77;;;7.10;99.90;;;5.57;96.80;102281.28;4875325;28;20047;-78
2021/11/15 02:25:23;;;;;;;43.45;17.73;;;7.10;99.90;;;5.50;97.32;102269.97;4891415;28;20132;-77
2021/11/15 02:27:53;;;;;;;47.35;19.40;;;7.10;99.90;;;5.46;97.04;102273.47;4941263;28;20039;-78
2021/11/15 02:30:29;;;;;;;43.25;18.48;;;7.00;99.90;;;5.51;97.56;102271.72;4917536;28;20070;-78
2021/11/15 02:33:00;;;;;;;41.88;17.63;;;7.00;99.90;;;5.46;97.39;102260.41;4911011;28;20549;-78
2021/11/15 02:35:26;;;;;;;38.92;17.52;;;7.00;99.90;;;5.46;97.20;102255.16;4872482;28;20030;-77
2021/11/15 02:37:53;;;;;;;37.33;17.25;;;7.00;99.90;;;5.46;96.95;102263.00;4913543;28;20543;-76
2021/11/15 02:40:26;;;;;;;39.10;17.45;;;7.00;99.90;;;5.46;96.77;102263.00;4889144;28;20110;-78
2021/11/15 02:42:55;;;;;;;44.92;17.20;;;7.00;99.90;;;5.47;96.52;102253.44;4911974;28;20476;-78
2021/11/15 02:45:26;;;;;;;41.78;17.80;;;7.00;99.90;;;5.44;96.52;102256.03;4921940;28;20031;-78
2021/11/15 02:47:56;;;;;;;45.55;17.90;;;7.00;99.90;;;5.49;96.46;102263.03;4926782;28;20086;-78
2021/11/15 02:50:28;;;;;;;38.63;16.60;;;7.00;99.90;;;5.47;96.64;102261.28;4890312;28;20558;-77
2021/11/15 02:53:05;;;;;;;38.58;17.65;;;7.00;99.90;;;5.46;96.52;102260.41;4885816;28;20043;-78
2021/11/15 02:55:33;;;;;;;46.78;18.80;;;7.00;99.90;;;5.39;96.91;102257.81;4875306;28;20046;-77
2021/11/15 02:58:04;;;;;;;43.85;18.05;;;7.00;99.90;;;5.38;97.41;102258.66;4883928;28;20499;-78
2021/11/15 03:00:48;;;;;;;38.08;15.82;;;6.90;99.90;;;5.33;97.56;102249.13;4892348;28;20054;-77
2021/11/15 03:03:18;;;;;;;41.47;17.23;;;7.00;99.90;;;5.32;98.08;102249.09;4902021;28;20031;-77
2021/11/15 03:05:49;;;;;;;41.45;16.95;;;6.90;99.90;;;5.31;97.97;102252.56;4915883;28;20043;-78
2021/11/15 03:08:18;;;;;;;46.90;18.45;;;6.90;99.90;;;5.32;98.08;102260.41;4888885;28;20114;-77
2021/11/15 03:10:49;;;;;;;44.50;17.65;;;6.90;99.90;;;5.34;98.32;102261.28;4901945;28;20042;-78
2021/11/15 03:13:19;;;;;;;45.13;18.13;;;7.00;99.90;;;5.38;98.41;102263.88;4906841;28;20475;-78
2021/11/15 03:15:54;;;;;;;44.47;18.48;;;6.90;99.90;;;5.32;98.46;102251.72;4881865;28;20027;-77
2021/11/15 03:18:30;;;;;;;47.42;17.35;;;6.90;99.90;;;5.30;98.79;102249.09;4914517;28;20037;-77
2021/11/15 03:21:10;;;;;;;40.67;17.75;;;6.90;99.90;;;5.27;98.72;102246.50;4905424;28;20038;-78
2021/11/15 03:23:45;;;;;;;39.95;17.45;;;6.90;99.90;;;5.33;99.12;102253.44;4906239;28;20084;-78
2021/11/15 03:26:16;;;;;;;42.75;18.08;;;6.90;99.90;;;5.37;98.56;102263.03;4899984;28;20023;-77
2021/11/15 03:28:47;;;;;;;42.88;17.35;;;6.90;99.90;;;5.37;98.18;102233.44;4897480;28;20154;-78
2021/11/15 03:31:27;;;;;;;41.28;18.17;;;6.90;99.90;;;5.36;98.12;102250.84;4914462;28;20035;-77
2021/11/15 03:34:06;;;;;;;40.38;16.65;;;7.00;99.90;;;5.34;98.18;102253.44;4917720;28;20038;-78
2021/11/15 03:36:33;;;;;;;41.70;16.92;;;6.90;99.90;;;5.32;98.55;102246.50;4890986;28;20069;-78
2021/11/15 03:38:59;;;;;;;49.00;17.75;;;6.90;99.90;;;5.28;99.06;102236.91;4910518;28;20488;-77
2021/11/15 03:41:35;;;;;;;42.95;17.20;;;6.90;99.90;;;5.25;99.33;102242.16;4907623;28;20118;-78
2021/11/15 03:44:03;;;;;;;53.00;17.17;;;6.90;99.90;;;5.26;99.26;102238.66;4911740;28;20078;-78
2021/11/15 03:46:32;;;;;;;46.67;18.92;;;6.80;99.90;;;5.26;98.85;102238.66;4895117;28;20078;-78
2021/11/15 03:49:00;;;;;;;40.33;16.92;;;6.90;99.90;;;5.23;99.33;102243.91;4894861;28;20109;-78
2021/11/15 03:51:27;;;;;;;38.03;16.70;;;6.80;99.90;;;5.30;99.22;102246.47;4877047;28;20050;-78
2021/11/15 03:53:54;;;;;;;41.20;16.85;;;6.90;99.90;;;5.29;99.21;102244.75;4919396;28;20070;-77
2021/11/15 03:56:25;;;;;;;43.30;17.77;;;6.90;99.90;;;5.22;100.00;102236.91;4888712;28;20039;-77
2021/11/15 03:58:52;;;;;;;48.58;19.83;;;6.90;99.90;;;5.31;99.50;102247.34;4909522;28;20157;-77
2021/11/15 04:01:26;;;;;;;43.03;19.02;;;6.90;99.90;;;5.29;99.68;102249.09;4920561;28;20074;-78
2021/11/15 04:03:54;;;;;;;45.08;17.85;;;6.90;99.90;;;5.30;99.55;102248.22;4901916;28;20049;-78
2021/11/15 04:06:28;;;;;;;43.95;16.65;;;6.90;99.90;;;5.28;99.40;102244.75;4906566;28;20032;-78
2021/11/15 04:09:00;;;;;;;48.38;16.95;;;6.90;99.90;;;5.27;99.05;102229.94;4903784;28;20038;-78
2021/11/15 04:11:33;;;;;;;39.65;17.40;;;6.80;99.90;;;5.29;99.20;102244.75;4918583;28;20035;-77
2021/11/15 04:14:05;;;;;;;43.78;17.48;;;6.80;99.90;;;5.30;99.12;102243.00;4919138;28;20031;-78
2021/11/15 04:16:33;;;;;;;36.72;14.00;;;6.90;99.90;;;5.39;98.36;102237.78;4914186;28;20028;-78
2021/11/15 04:19:06;;;;;;;32.95;14.52;;;6.90;99.90;;;5.31;98.19;102231.69;4910996;28;20514;-78
2021/11/15 04:21:34;;;;;;;36.63;14.48;;;6.90;99.90;;;5.37;98.16;102236.91;4916114;28;20464;-78
2021/11/15 04:24:01;;;;;;;35.80;14.63;;;6.90;99.90;;;5.31;98.22;102235.19;4909111;28;20094;-77
2021/11/15 04:26:30;;;;;;;33.70;13.93;;;6.90;99.90;;;5.32;99.28;102244.75;4933206;28;20098;-78
2021/11/15 04:28:56;;;;;;;40.65;14.65;;;6.80;99.90;;;5.27;99.08;102250.81;4910256;28;20520;-78
2021/11/15 04:31:24;;;;;;;44.88;16.90;;;6.80;99.90;;;5.27;99.86;102237.78;4904597;28;20118;-78
2021/11/15 04:33:51;;;;;;;39.85;15.50;;;6.80;99.90;;;5.30;100.00;102235.16;4923977;28;20041;-78
2021/11/15 04:36:17;;;;;;;35.13;14.23;;;6.70;99.90;;;5.20;100.00;102230.81;4895936;28;20066;-78
2021/11/15 04:38:45;;;;;;;39.65;15.35;;;6.80;99.90;;;5.21;100.00;102232.56;4917675;28;20027;-78
2021/11/15 04:41:14;;;;;;;39.22;15.18;;;6.70;99.90;;;5.21;100.00;102232.56;4909810;28;20586;-78
2021/11/15 04:43:40;;;;;;;41.35;16.20;;;6.70;99.90;;;5.17;100.00;102233.44;4918593;28;20058;-77
2021/11/15 04:46:06;;;;;;;43.55;16.33;;;6.70;99.90;;;5.12;100.00;102234.31;4927916;28;20039;-78
2021/11/15 04:48:32;;;;;;;46.03;17.00;;;6.70;99.90;;;5.10;100.00;102233.44;4905815;28;20039;-77
2021/11/15 04:51:01;;;;;;;46.83;17.17;;;6.70;99.90;;;5.21;100.00;102235.19;4907623;28;20041;-77
2021/11/15 04:53:29;;;;;;;58.55;19.40;;;6.70;99.90;;;5.11;100.00;102223.84;4920979;28;20031;-78
2021/11/15 04:55:56;;;;;;;56.78;21.83;;;6.70;99.90;;;5.11;100.00;102222.09;4909962;28;20044;-78
2021/11/15 04:58:21;;;;;;;60.60;21.95;;;6.60;99.90;;;5.11;100.00;102223.84;4911081;28;20110;-77
2021/11/15 05:00:47;;;;;;;66.15;21.92;;;6.60;99.90;;;5.04;100.00;102214.28;4912460;28;20074;-78
2021/11/15 05:03:16;;;;;;;71.13;24.70;;;6.60;99.90;;;5.02;100.00;102223.88;4895775;28;20046;-78
2021/11/15 05:05:45;;;;;;;63.08;23.02;;;6.60;99.90;;;5.07;100.00;102233.41;4895912;28;20476;-78
2021/11/15 05:08:11;;;;;;;64.13;23.02;;;6.60;99.90;;;5.07;100.00;102220.38;4918745;28;20035;-78
2021/11/15 05:10:37;;;;;;;59.72;22.00;;;6.60;99.90;;;5.06;100.00;102212.56;4920948;28;20332;-78
2021/11/15 05:13:03;;;;;;;56.00;21.08;;;6.60;99.90;;;5.01;100.00;102209.06;4926602;28;20106;-79
2021/11/15 05:15:33;;;;;;;58.92;22.10;;;6.60;99.90;;;5.02;100.00;102213.41;4913963;28;20090;-78
2021/11/15 05:18:01;;;;;;;56.22;21.02;;;6.60;99.90;;;4.97;100.00;102213.41;4915970;28;20135;-78
2021/11/15 05:20:28;;;;;;;48.90;19.73;;;6.50;99.90;;;4.97;100.00;102212.53;4926763;28;20399;-78
2021/11/15 05:22:54;;;;;;;52.25;19.77;;;6.50;99.90;;;4.97;100.00;102212.53;4900927;28;20028;-77
2021/11/15 05:25:21;;;;;;;59.47;20.80;;;6.50;99.90;;;4.93;100.00;102209.06;4898909;28;20054;-78
2021/11/15 05:27:55;;;;;;;50.28;20.38;;;6.50;99.90;;;4.91;100.00;102210.81;4890852;28;20052;-77
2021/11/15 05:30:22;;;;;;;50.30;20.15;;;6.50;99.90;;;4.96;100.00;102208.19;4926739;28;20077;-78
2021/11/15 05:32:51;;;;;;;59.42;21.52;;;6.50;99.90;;;4.97;100.00;102216.03;4905635;28;20404;-77
2021/11/15 05:35:19;;;;;;;52.95;19.35;;;6.50;99.90;;;4.89;100.00;102209.94;4885797;28;20031;-78
2021/11/15 05:37:45;;;;;;;53.25;20.75;;;6.50;99.90;;;4.94;100.00;102214.25;4914440;28;20045;-76
2021/11/15 05:40:12;;;;;;;51.63;20.40;;;6.50;99.90;;;4.90;100.00;102215.16;4905005;28;20532;-77
2021/11/15 05:42:38;;;;;;;47.88;19.67;;;6.50;99.90;;;4.88;100.00;102213.41;4893382;28;20066;-78
2021/11/15 05:45:06;;;;;;;41.97;16.60;;;6.50;99.90;;;4.91;100.00;102210.81;4907709;28;20057;-77
2021/11/15 05:47:36;;;;;;;48.95;18.23;;;6.40;99.90;;;4.87;100.00;102214.28;4915387;28;20825;-78
2021/11/15 05:50:04;;;;;;;47.20;19.45;;;6.50;99.90;;;4.92;100.00;102221.25;4896120;28;20039;-78
2021/11/15 05:52:30;;;;;;;40.60;16.98;;;6.50;99.90;;;4.97;100.00;102217.75;4895626;28;20046;-77
2021/11/15 05:54:56;;;;;;;46.17;18.73;;;6.50;99.90;;;5.06;100.00;102231.69;4885835;28;20031;-77
2021/11/15 05:57:26;;;;;;;39.90;15.85;;;6.50;99.90;;;5.03;100.00;102223.88;4903286;28;20038;-78
2021/11/15 05:59:51;;;;;;;48.00;17.35;;;6.50;99.90;;;5.00;100.00;102216.03;4898664;28;20016;-78
2021/11/15 06:02:17;;;;;;;47.92;18.48;;;6.50;99.90;;;4.92;100.00;102222.97;4879493;28;20032;-78
2021/11/15 06:04:43;;;;;;;41.85;17.10;;;6.50;99.90;;;4.96;100.00;102229.06;4917060;28;20062;-77
2021/11/15 06:07:09;;;;;;;55.38;22.17;;;6.50;99.90;;;4.92;100.00;102230.81;4917211;28;20039;-77
2021/11/15 06:09:35;;;;;;;36.90;15.73;;;6.40;99.90;;;5.00;100.00;102239.50;4902473;28;20051;-77
2021/11/15 06:12:02;;;;;;;38.60;15.88;;;6.50;99.90;;;4.91;100.00;102232.56;4913804;28;20558;-77
2021/11/15 06:14:34;;;;;;;39.97;15.15;;;6.50;99.90;;;4.93;100.00;102229.94;4910275;28;20035;-77
2021/11/15 06:17:00;;;;;;;40.67;15.27;;;6.50;99.90;;;4.88;100.00;102222.13;4899600;28;20038;-78
2021/11/15 06:19:26;;;;;;;38.22;16.45;;;6.50;99.90;;;4.90;100.00;102223.00;4886846;28;20107;-78
2021/11/15 06:21:52;;;;;;;38.42;14.95;;;6.50;99.90;;;4.86;100.00;102225.56;4871327;28;20117;-77
2021/11/15 06:24:18;;;;;;;35.55;15.77;;;6.50;99.90;;;4.94;100.00;102239.50;4912719;28;20057;-77
2021/11/15 06:26:52;;;;;;;36.75;15.50;;;6.50;99.90;;;5.01;100.00;102254.31;4904204;28;20090;-77
2021/11/15 06:29:19;;;;;;;29.15;13.40;;;6.50;99.90;;;4.92;100.00;102243.84;4894558;28;20034;-77
2021/11/15 06:31:45;;;;;;;35.20;15.13;;;6.50;99.90;;;4.93;100.00;102240.38;4908484;28;20054;-78
2021/11/15 06:34:16;;;;;;;33.90;14.15;;;6.40;99.90;;;4.80;100.00;102234.28;4890340;28;20059;-77
2021/11/15 06:36:42;;;;;;;36.55;13.60;;;6.40;99.90;;;4.90;100.00;102229.94;4923401;28;20031;-76
2021/11/15 06:39:08;;;;;;;33.65;14.82;;;6.40;99.90;;;4.79;100.00;102231.66;4920560;28;20034;-78
2021/11/15 06:41:35;;;;;;;35.00;14.00;;;6.40;99.90;;;4.85;100.00;102239.50;4886618;28;20039;-78
2021/11/15 06:44:10;;;;;;;33.40;14.10;;;6.40;99.90;;;4.83;100.00;102243.84;4931652;28;20065;-77
2021/11/15 06:46:36;;;;;;;35.97;14.45;;;6.40;99.90;;;4.88;100.00;102249.94;4883036;28;20042;-76
2021/11/15 06:49:03;;;;;;;32.75;13.90;;;6.40;99.90;;;4.86;100.00;102257.78;4910077;28;20035;-78
2021/11/15 06:51:29;;;;;;;35.65;14.38;;;6.40;99.90;;;4.89;100.00;102244.72;4913754;28;20023;-77
2021/11/15 06:53:55;;;;;;;32.10;13.98;;;6.40;99.90;;;4.78;100.00;102237.75;4920247;28;20102;-76
2021/11/15 06:56:21;;;;;;;38.45;14.32;;;6.40;99.90;;;4.75;100.00;102241.22;4911211;28;20035;-79
2021/11/15 06:58:47;;;;;;;36.25;13.80;;;6.30;99.90;;;4.76;100.00;102249.94;4919207;28;20027;-78
2021/11/15 07:01:13;;;;;;;34.08;15.50;;;6.30;99.90;;;4.71;100.00;102244.72;4909199;28;20051;-78
2021/11/15 07:03:39;;;;;;;37.05;15.95;;;6.30;99.90;;;4.76;100.00;102249.94;4910568;28;20112;-78
2021/11/15 07:06:05;;;;;;;40.35;15.98;;;6.30;99.90;;;4.81;100.00;102245.59;4910439;28;20034;-77
2021/11/15 07:08:31;;;;;;;37.90;15.88;;;6.40;99.90;;;4.80;100.00;102249.06;4921649;28;20078;-77
2021/11/15 07:10:57;;;;;;;42.33;14.60;;;6.40;99.90;;;4.73;100.00;102233.41;4905400;28;20027;-78
2021/11/15 07:13:23;;;;;;;35.28;14.02;;;6.40;99.90;;;4.80;100.00;102249.94;4883656;28;20031;-78
2021/11/15 07:15:50;;;;;;;35.83;14.35;;;6.30;99.90;;;4.76;100.00;102252.56;4903745;28;20063;-78
2021/11/15 07:18:17;;;;;;;31.25;13.32;;;6.30;99.90;;;4.70;100.00;102249.03;4932049;28;20043;-78
2021/11/15 07:20:44;;;;;;;29.10;13.10;;;6.30;99.90;;;4.76;100.00;102258.63;4939937;28;20038;-77
2021/11/15 07:23:11;;;;;;;38.20;15.70;;;6.40;99.90;;;4.77;100.00;102256.88;4901959;28;20091;-78
2021/11/15 07:25:37;;;;;;;36.55;13.52;;;6.30;99.90;;;4.81;100.00;102262.09;4872881;28;20031;-78
2021/11/15 07:28:06;;;;;;;40.40;14.02;;;6.30;99.90;;;4.77;100.00;102252.53;4897141;28;20035;-77
2021/11/15 07:30:33;;;;;;;34.58;13.77;;;6.30;99.90;;;4.81;100.00;102256.88;4919842;28;20024;-78
2021/11/15 07:33:00;;;;;;;34.63;14.70;;;6.30;99.90;;;4.70;100.00;102249.03;4897922;28;20058;-78
2021/11/15 07:35:26;;;;;;;42.25;16.42;;;6.30;99.90;;;4.67;100.00;102242.97;4938720;28;20027;-77
2021/11/15 07:37:53;;;;;;;35.63;15.00;;;6.30;99.90;;;4.77;100.00;102255.13;4877581;28;20047;-78
2021/11/15 07:40:22;;;;;;;38.70;13.77;;;6.30;99.90;;;4.70;100.00;102249.03;4894327;28;20055;-77
2021/11/15 07:42:48;;;;;;;35.55;14.77;;;6.30;99.90;;;4.68;100.00;102253.38;4927081;28;20031;-78
2021/11/15 07:45:15;;;;;;;36.55;14.20;;;6.30;99.90;;;4.71;100.00;102247.31;4903198;28;20043;-78
2021/11/15 07:47:42;;;;;;;31.42;13.65;;;6.30;99.90;;;4.69;100.00;102247.31;4918447;28;20015;-78
2021/11/15 07:50:10;;;;;;;37.75;14.10;;;6.30;99.90;;;4.83;100.00;102259.50;4919951;28;20038;-77
2021/11/15 07:52:39;;;;;;;34.20;14.23;;;6.30;99.90;;;4.67;100.00;102241.22;4910257;28;20118;-77
2021/11/15 07:55:09;;;;;;;29.88;12.25;;;6.30;99.90;;;4.81;100.00;102253.41;4908875;28;20102;-77
2021/11/15 07:57:36;;;;;;;29.05;13.32;;;6.30;99.90;;;4.77;100.00;102249.06;4927294;28;20078;-78
2021/11/15 08:00:06;;;;;;;37.17;12.80;;;6.30;99.90;;;4.72;100.00;102244.69;4903790;28;20019;-77
2021/11/15 08:02:32;;;;;;;36.45;13.85;;;6.30;99.90;;;4.71;100.00;102245.56;4892423;28;20036;-78
2021/11/15 08:04:58;;;;;;;29.45;12.73;;;6.30;99.90;;;4.70;100.00;102254.25;4891377;28;20047;-78
2021/11/15 08:07:25;;;;;;;32.75;13.20;;;6.30;99.90;;;4.73;100.00;102254.28;4905101;28;20035;-77
2021/11/15 08:09:51;;;;;;;33.83;12.85;;;6.30;99.90;;;4.76;100.00;102255.16;4879389;28;20027;-77
2021/11/15 08:12:21;;;;;;;35.97;12.75;;;6.30;99.90;;;4.68;100.00;102249.91;4911736;28;20042;-77
2021/11/15 08:14:48;;;;;;;30.50;12.80;;;6.30;99.90;;;4.85;100.00;102282.13;4913742;28;20031;-77
2021/11/15 08:17:14;;;;;;;37.28;13.32;;;6.30;99.90;;;4.76;100.00;102271.69;4908034;28;20063;-78
2021/11/15 08:19:42;;;;;;;37.03;14.15;;;6.40;99.90;;;4.77;100.00;102268.19;4929917;28;20035;-77
2021/11/15 08:22:09;;;;;;;33.30;13.32;;;6.30;99.90;;;4.71;100.00;102269.06;4874404;28;20042;-79
2021/11/15 08:24:53;;;;;;;31.50;12.90;;;6.30;99.90;;;4.66;100.00;102267.28;4857202;28;20043;-77
2021/11/15 08:27:21;;;;;;;31.02;12.82;;;6.30;99.90;;;4.65;100.00;102268.19;4883145;28;20114;-77
2021/11/15 08:29:47;;;;;;;32.22;12.45;;;6.30;99.90;;;4.66;100.00;102276.00;4877541;28;20031;-79
2021/11/15 08:32:15;;;;;;;40.90;14.63;;;6.20;99.90;;;4.71;100.00;102283.84;4897706;28;20042;-79
2021/11/15 08:34:43;;;;;;;40.80;14.13;;;6.30;99.90;;;4.69;100.00;102277.75;4871032;28;20035;-78
2021/11/15 08:37:12;;;;;;;42.33;14.65;;;;;;;4.61;100.00;102269.91;4901930;28;20057;-78
2021/11/15 08:39:38;;;;;;;43.15;15.48;;;6.20;99.90;;;4.70;100.00;102264.69;4920579;28;20038;-78
2021/11/15 08:42:09;;;;;;;46.42;16.02;;;6.20;99.90;;;4.54;100.00;102260.31;4894520;28;20424;-77
2021/11/15 08:44:43;;;;;;;40.22;15.60;;;6.20;99.90;;;4.65;100.00;102276.88;4913791;28;20054;-77
2021/11/15 08:47:09;;;;;;;52.80;16.52;;;6.20;99.90;;;4.60;100.00;102277.72;4918033;28;20539;-77
2021/11/15 08:49:35;;;;;;;56.97;18.75;;;6.20;99.90;;;4.56;100.00;102270.75;4886304;28;20419;-78
2021/11/15 08:52:05;;;;;;;55.40;19.23;;;6.10;99.90;;;4.59;100.00;102271.63;4884879;28;20455;-77
2021/11/15 08:54:31;;;;;;;61.60;20.20;;;6.10;99.90;;;4.57;100.00;102268.16;4906677;28;20027;-77
2021/11/15 08:57:03;;;;;;;57.17;18.83;;;6.10;99.90;;;4.55;100.00;102266.41;4910557;28;21124;-77
2021/11/15 08:59:29;;;;;;;58.20;18.30;;;6.10;99.90;;;4.57;100.00;102272.50;4916635;28;20059;-76
2021/11/15 09:01:58;;;;;;;59.42;19.10;;;6.10;99.90;;;4.64;100.00;102276.84;4897116;28;20728;-81
2021/11/15 09:04:25;;;;;;;74.80;22.90;;;6.10;99.90;;;4.53;100.00;102271.59;4853785;28;20576;-79
2021/11/15 09:06:52;;;;;;;71.53;22.55;;;6.10;99.90;;;4.59;100.00;102271.63;4866136;28;20571;-79
2021/11/15 09:09:28;;;;;;;62.72;20.30;;;6.20;99.90;;;4.60;100.00;102278.59;4894974;28;20105;-79
2021/11/15 09:11:58;;;;;;;59.85;19.08;;;6.10;99.90;;;4.52;100.00;102272.50;4879063;28;20047;-78
2021/11/15 09:14:31;;;;;;;68.75;20.52;;;5.00;99.90;;;4.50;100.00;102288.13;4870925;28;20051;-78
2021/11/15 09:16:57;;;;;;;54.75;19.30;;;6.10;99.90;;;4.51;100.00;102289.88;4897455;28;20050;-77
2021/11/15 09:19:24;;;;;;;68.63;22.20;;;6.10;99.90;;;4.57;100.00;102290.75;4876366;28;20036;-78
2021/11/15 09:21:56;;;;;;;69.90;23.70;;;6.10;99.90;;;4.52;100.00;102268.13;4888944;28;20034;-77
2021/11/15 09:24:32;;;;;;;64.40;20.25;;;6.10;99.90;;;4.49;100.00;102280.28;4877193;28;20038;-79
2021/11/15 09:27:17;;;;;;;66.18;20.27;;;6.10;99.90;;;4.59;100.00;102286.41;4873351;28;20081;-77
2021/11/15 09:29:49;;;;;;;53.33;18.35;;;6.20;99.90;;;4.56;100.00;102284.69;4881883;28;20042;-78
2021/11/15 09:32:19;;;;;;;57.40;18.63;;;6.10;99.90;;;4.61;100.00;102277.72;4873311;28;20039;-78
2021/11/15 09:34:47;;;;;;;49.58;16.50;;;6.10;99.90;;;4.47;100.00;102267.25;4921215;28;20041;-79
2021/11/15 09:37:39;;;;;;;49.72;17.75;;;6.10;99.90;;;4.51;100.00;102271.63;4882113;28;20109;-78
2021/11/15 09:40:09;;;;;;;54.20;15.98;;;6.10;99.90;;;4.59;100.00;102281.19;4904723;28;20129;-79
2021/11/15 09:42:36;;;;;;;53.45;19.27;;;6.10;99.90;;;4.59;100.00;102282.06;4876593;28;20048;-78
2021/11/15 09:45:07;;;;;;;66.03;18.98;;;6.10;99.90;;;4.56;100.00;102286.38;4889478;28;20487;-79
2021/11/15 09:47:39;;;;;;;38.47;15.75;;;6.20;99.90;;;4.60;100.00;102290.75;4892133;28;20038;-78
2021/11/15 09:50:14;;;;;;;46.50;15.68;;;6.10;99.90;;;4.57;100.00;102288.16;4881101;28;20526;-77
2021/11/15 09:52:58;;;;;;;44.55;16.80;;;6.10;99.90;;;4.50;100.00;102287.25;4868131;28;20046;-78
2021/11/15 09:55:35;;;;;;;44.72;15.55;;;6.10;99.90;;;4.46;100.00;102285.50;4886189;28;20531;-78
2021/11/15 09:58:01;;;;;;;43.63;14.32;;;6.00;99.90;;;4.44;100.00;102287.22;4900567;28;20416;-79
2021/11/15 10:00:34;;;;;;;46.03;16.27;;;6.00;99.90;;;4.47;100.00;102285.53;4900404;28;20031;-79
2021/11/15 10:03:07;;;;;;;52.72;18.55;;;6.00;99.90;;;4.41;100.00;102282.03;4885154;28;20618;-79
2021/11/15 10:05:33;;;;;;;53.08;16.92;;;6.00;99.90;;;4.32;100.00;102270.69;4892263;28;20047;-80
2021/11/15 10:08:12;;;;;;;58.80;20.48;;;6.00;99.90;;;4.42;100.00;102287.22;4911071;28;20496;-79
2021/11/15 10:10:56;;;;;;;45.55;17.15;;;6.00;99.90;;;4.33;100.00;102279.38;4896776;28;20047;-79
2021/11/15 10:13:40;;;;;;;56.67;18.40;;;6.00;99.90;;;4.34;100.00;102265.44;4896337;28;20027;-79
2021/11/15 10:16:13;;;;;;;50.85;18.65;;;6.00;99.90;;;4.37;100.00;102264.63;4898708;28;20118;-80